createdAt,value
2018-05-01T00:01:48.166Z,5.03
2018-05-01T00:04:15.926Z,7.80
2018-05-01T00:06:43.745Z,5.07
2018-05-01T00:09:11.493Z,9.35
2018-05-01T00:11:39.284Z,7.00
2018-05-01T00:14:07.884Z,7.57
2018-05-01T00:16:35.655Z,6.78
2018-05-01T00:19:03.415Z,5.75
2018-05-01T00:21:31.227Z,6.10
2018-05-01T00:23:58.986Z,6.12
2018-05-01T00:26:26.729Z,8.68
2018-05-01T00:28:55.301Z,9.50
2018-05-01T00:31:23.032Z,8.27
2018-05-01T00:33:50.777Z,8.57
2018-05-01T00:36:19.359Z,7.22
2018-05-01T00:38:47.884Z,6.15
2018-05-01T00:41:15.665Z,10.60
2018-05-01T00:43:43.496Z,6.10
2018-05-01T00:46:11.231Z,6.45
2018-05-01T00:48:39.059Z,6.35
2018-05-01T00:51:06.862Z,7.10
2018-05-01T00:53:34.630Z,7.03
2018-05-01T00:56:02.379Z,5.25
2018-05-01T00:58:30.956Z,5.20
2018-05-01T01:00:59.479Z,6.65
2018-05-01T01:03:27.208Z,5.87
2018-05-01T01:05:55.008Z,7.43
2018-05-01T01:08:22.771Z,5.30
2018-05-01T01:10:50.507Z,5.95
2018-05-01T01:13:18.335Z,6.18
2018-05-01T01:15:46.109Z,6.80
2018-05-01T01:18:14.704Z,5.50
2018-05-01T01:20:42.504Z,5.80
2018-05-01T01:23:10.246Z,10.02
2018-05-01T01:25:37.995Z,5.60
2018-05-01T01:28:05.796Z,5.97
2018-05-01T01:30:33.580Z,12.07
2018-05-01T01:33:02.140Z,7.87
2018-05-01T01:35:29.498Z,5.93
2018-05-01T01:37:56.816Z,4.50
2018-05-01T01:40:24.076Z,6.32
2018-05-01T01:42:51.424Z,4.85
2018-05-01T01:45:18.825Z,4.03
2018-05-01T01:47:46.940Z,22.67
2018-05-01T01:50:14.290Z,5.47
2018-05-01T01:52:41.618Z,6.15
2018-05-01T01:55:09.633Z,6.07
2018-05-01T01:57:36.933Z,5.45
2018-05-01T02:00:05.014Z,5.20
2018-05-01T02:02:32.295Z,6.62
2018-05-01T02:04:59.620Z,7.25
2018-05-01T02:07:27.784Z,6.37
2018-05-01T02:09:55.079Z,5.60
2018-05-01T02:12:22.474Z,6.70
2018-05-01T02:14:50.506Z,7.78
2018-05-01T02:17:17.765Z,7.00
2018-05-01T02:19:45.120Z,7.65
2018-05-01T02:22:13.187Z,7.32
2018-05-01T02:24:42.268Z,8.02
2018-05-01T02:27:11.658Z,8.65
2018-05-01T02:29:38.933Z,6.80
2018-05-01T02:32:06.201Z,5.43
2018-05-01T02:34:33.524Z,6.97
2018-05-01T02:37:00.803Z,7.22
2018-05-01T02:39:28.086Z,6.35
2018-05-01T02:41:55.450Z,7.62
2018-05-01T02:44:23.500Z,6.43
2018-05-01T02:46:50.786Z,5.62
2018-05-01T02:49:18.078Z,6.20
2018-05-01T02:51:46.114Z,5.50
2018-05-01T02:54:13.384Z,5.70
2018-05-01T02:56:40.691Z,6.05
2018-05-01T02:59:07.980Z,6.70
2018-05-01T03:01:35.278Z,5.62
2018-05-01T03:04:02.597Z,5.93
2018-05-01T03:06:29.850Z,5.03
2018-05-01T03:08:57.885Z,6.12
2018-05-01T03:11:25.201Z,9.15
2018-05-01T03:13:52.657Z,7.80
2018-05-01T03:16:19.920Z,6.85
2018-05-01T03:18:47.265Z,6.45
2018-05-01T03:21:14.552Z,8.48
2018-05-01T03:23:41.810Z,7.40
2018-05-01T03:26:09.135Z,8.05
2018-05-01T03:28:36.423Z,7.07
2018-05-01T03:31:03.675Z,9.40
2018-05-01T03:33:30.990Z,9.40
2018-05-01T03:35:58.273Z,9.07
2018-05-01T03:38:25.528Z,8.07
2018-05-01T03:40:52.848Z,7.28
2018-05-01T03:43:20.860Z,8.52
2018-05-01T03:45:48.119Z,8.95
2018-05-01T03:48:16.182Z,8.00
2018-05-01T03:50:44.203Z,8.45
2018-05-01T03:53:11.466Z,12.82
2018-05-01T03:55:38.772Z,7.78
2018-05-01T03:58:06.030Z,7.35
2018-05-01T04:00:33.324Z,10.40
2018-05-01T04:03:00.652Z,7.53
2018-05-01T04:05:27.910Z,8.55
2018-05-01T04:07:55.191Z,6.68
2018-05-01T04:10:22.506Z,6.22
2018-05-01T04:12:49.780Z,5.87
2018-05-01T04:15:17.052Z,6.28
2018-05-01T04:17:45.161Z,15.57
2018-05-01T04:20:12.427Z,7.97
2018-05-01T04:22:39.683Z,6.47
2018-05-01T04:25:07.021Z,5.82
2018-05-01T04:27:34.311Z,6.10
2018-05-01T04:30:02.347Z,6.28
2018-05-01T04:32:29.648Z,8.07
2018-05-01T04:34:57.694Z,7.60
2018-05-01T04:37:24.962Z,13.38
2018-05-01T04:39:53.055Z,6.87
2018-05-01T04:42:20.337Z,6.37
2018-05-01T04:44:47.641Z,6.85
2018-05-01T04:47:15.711Z,9.88
2018-05-01T04:49:43.808Z,8.68
2018-05-01T04:52:11.099Z,11.60
2018-05-01T04:54:38.480Z,7.47
2018-05-01T04:57:06.545Z,8.95
2018-05-01T04:59:34.593Z,7.15
2018-05-01T05:02:01.912Z,7.97
2018-05-01T05:04:29.172Z,9.55
2018-05-01T05:06:56.440Z,5.45
2018-05-01T05:09:23.821Z,8.00
2018-05-01T05:11:51.067Z,8.27
2018-05-01T05:14:19.132Z,7.37
2018-05-01T05:16:47.244Z,8.00
2018-05-01T05:19:14.527Z,6.47
2018-05-01T05:21:41.771Z,7.35
2018-05-01T05:24:09.077Z,9.05
2018-05-01T05:26:36.364Z,7.30
2018-05-01T05:29:04.425Z,9.57
2018-05-01T05:31:31.738Z,6.75
2018-05-01T05:33:59.784Z,9.55
2018-05-01T05:36:27.030Z,9.95
2018-05-01T05:38:54.351Z,5.93
2018-05-01T05:41:21.635Z,9.35
2018-05-01T05:43:48.899Z,6.37
2018-05-01T05:46:16.977Z,6.78
2018-05-01T05:48:45.120Z,7.65
2018-05-01T05:51:12.352Z,7.45
2018-05-01T05:53:39.662Z,6.97
2018-05-01T05:56:06.913Z,6.40
2018-05-01T05:58:34.191Z,5.97
2018-05-01T06:01:01.607Z,6.25
2018-05-01T06:03:29.630Z,6.45
2018-05-01T06:05:56.902Z,6.80
2018-05-01T06:08:24.195Z,8.77
2018-05-01T06:10:51.485Z,7.03
2018-05-01T06:13:19.513Z,7.07
2018-05-01T06:15:46.808Z,11.00
2018-05-01T06:18:14.059Z,8.18
2018-05-01T06:20:41.307Z,7.55
2018-05-01T06:23:08.629Z,7.25
2018-05-01T06:25:35.899Z,6.47
2018-05-01T06:28:03.191Z,6.28
2018-05-01T06:30:30.532Z,4.60
2018-05-01T06:32:58.564Z,2.45
2018-05-01T06:35:26.579Z,3.45
2018-05-01T06:37:54.667Z,2.90
2018-05-01T06:40:21.944Z,2.60
2018-05-01T06:42:49.222Z,6.00
2018-05-01T06:45:16.573Z,3.40
2018-05-01T06:47:43.942Z,3.25
2018-05-01T06:50:11.997Z,5.78
2018-05-01T06:52:39.317Z,3.47
2018-05-01T06:55:06.588Z,3.05
2018-05-01T06:57:33.857Z,3.58
2018-05-01T07:00:01.238Z,3.28
2018-05-01T07:02:28.516Z,3.90
2018-05-01T07:04:55.770Z,2.35
2018-05-01T07:07:23.122Z,3.10
2018-05-01T07:09:50.439Z,3.47
2018-05-01T07:12:17.708Z,6.10
2018-05-01T07:14:45.076Z,6.40
2018-05-01T07:17:13.109Z,10.75
2018-05-01T07:19:40.361Z,8.18
2018-05-01T07:22:07.680Z,9.25
2018-05-01T07:24:35.002Z,6.90
2018-05-01T07:27:02.307Z,3.90
2018-05-01T07:29:30.385Z,6.80
2018-05-01T07:31:57.634Z,3.67
2018-05-01T07:34:24.879Z,5.28
2018-05-01T07:36:52.950Z,5.47
2018-05-01T07:39:20.198Z,3.90
2018-05-01T07:41:47.477Z,4.62
2018-05-01T07:44:14.804Z,3.87
2018-05-01T07:46:42.042Z,3.47
2018-05-01T07:49:10.171Z,5.68
2018-05-01T07:51:37.463Z,4.68
2018-05-01T07:54:05.542Z,4.28
2018-05-01T07:56:32.787Z,5.72
2018-05-01T07:59:00.115Z,4.00
2018-05-01T08:01:27.388Z,4.60
2018-05-01T08:03:54.648Z,4.87
2018-05-01T08:06:21.986Z,4.47
2018-05-01T08:08:49.247Z,6.28
2018-05-01T08:11:17.262Z,5.53
2018-05-01T08:13:44.573Z,4.43
2018-05-01T08:16:11.833Z,4.50
2018-05-01T08:18:39.130Z,7.70
2018-05-01T08:21:06.444Z,4.65
2018-05-01T08:23:33.944Z,7.80
2018-05-01T08:26:01.505Z,6.40
2018-05-01T08:28:29.220Z,4.82
2018-05-01T08:30:57.568Z,4.37
2018-05-01T08:33:25.212Z,3.28
2018-05-01T08:35:52.937Z,3.20
2018-05-01T08:38:20.725Z,3.50
2018-05-01T08:40:48.350Z,3.87
2018-05-01T08:43:17.252Z,4.03
2018-05-01T08:45:45.934Z,2.50
2018-05-01T08:48:13.563Z,3.75
2018-05-01T08:50:42.105Z,3.22
2018-05-01T08:53:10.666Z,2.70
2018-05-01T08:55:39.131Z,2.42
2018-05-01T08:58:06.911Z,4.03
2018-05-01T09:00:35.084Z,3.30
2018-05-01T09:03:02.762Z,3.47
2018-05-01T09:05:31.919Z,2.65
2018-05-01T09:07:59.519Z,2.92
2018-05-01T09:10:27.103Z,4.53
2018-05-01T09:12:54.798Z,2.83
2018-05-01T09:15:22.362Z,2.78
2018-05-01T09:17:49.861Z,1.85
2018-05-01T09:20:17.149Z,3.15
2018-05-01T09:22:44.403Z,2.92
2018-05-01T09:25:11.698Z,4.07
2018-05-01T09:27:39.770Z,5.40
2018-05-01T09:30:07.832Z,3.47
2018-05-01T09:32:35.120Z,2.83
2018-05-01T09:35:02.704Z,3.40
2018-05-01T09:37:30.057Z,4.12
2018-05-01T09:39:57.323Z,2.30
2018-05-01T09:42:24.616Z,5.12
2018-05-01T09:44:51.860Z,4.50
2018-05-01T09:47:19.095Z,3.60
2018-05-01T09:49:47.160Z,3.33
2018-05-01T09:52:15.691Z,2.92
2018-05-01T09:54:43.472Z,4.10
2018-05-01T09:57:11.253Z,3.75
2018-05-01T09:59:39.017Z,4.15
2018-05-01T10:02:07.511Z,2.95
2018-05-01T10:04:36.092Z,3.28
2018-05-01T10:07:04.616Z,3.10
2018-05-01T10:09:32.339Z,3.40
2018-05-01T10:12:00.442Z,2.33
2018-05-01T10:14:28.183Z,3.08
2018-05-01T10:16:55.939Z,3.30
2018-05-01T10:19:23.733Z,4.25
2018-05-01T10:21:52.233Z,4.82
2018-05-01T10:24:19.972Z,4.35
2018-05-01T10:26:47.760Z,4.90
2018-05-01T10:29:15.497Z,7.15
2018-05-01T10:31:43.412Z,4.50
2018-05-01T10:34:11.957Z,5.68
2018-05-01T10:36:39.679Z,4.87
2018-05-01T10:39:07.427Z,5.93
2018-05-01T10:41:35.219Z,4.55
2018-05-01T10:44:03.017Z,4.78
2018-05-01T10:46:30.753Z,4.50
2018-05-01T10:48:58.589Z,6.78
2018-05-01T10:51:26.344Z,4.40
2018-05-01T10:53:54.074Z,4.10
2018-05-01T10:56:21.855Z,3.80
2018-05-01T10:58:49.605Z,4.15
2018-05-01T11:01:18.100Z,3.35
2018-05-01T11:03:45.959Z,3.80
2018-05-01T11:06:14.453Z,4.10
2018-05-01T11:08:42.287Z,3.45
2018-05-01T11:11:10.047Z,4.18
2018-05-01T11:13:38.557Z,3.10
2018-05-01T11:16:06.288Z,3.83
2018-05-01T11:18:34.859Z,4.00
2018-05-01T11:21:02.618Z,4.50
2018-05-01T11:23:30.339Z,4.60
2018-05-01T11:25:58.193Z,3.70
2018-05-01T11:28:26.756Z,4.05
2018-05-01T11:30:54.461Z,5.60
2018-05-01T11:33:22.238Z,3.28
2018-05-01T11:35:49.960Z,3.42
2018-05-01T11:38:17.689Z,3.37
2018-05-01T11:40:45.471Z,3.53
2018-05-01T11:43:13.208Z,3.15
2018-05-01T11:45:41.694Z,6.10
2018-05-01T11:48:10.243Z,4.32
2018-05-01T11:50:37.979Z,4.75
2018-05-01T11:53:05.712Z,4.28
2018-05-01T11:55:33.487Z,3.95
2018-05-01T11:58:01.225Z,4.15
2018-05-01T12:00:28.960Z,6.05
2018-05-01T12:02:56.752Z,4.43
2018-05-01T12:05:24.487Z,4.55
2018-05-01T12:07:52.218Z,4.00
2018-05-01T12:10:20.024Z,4.00
2018-05-01T12:12:48.538Z,3.95
2018-05-01T12:15:16.259Z,5.80
2018-05-01T12:17:44.814Z,3.67
2018-05-01T12:20:12.546Z,2.97
2018-05-01T12:22:40.287Z,3.03
2018-05-01T12:25:08.077Z,3.90
2018-05-01T12:27:35.818Z,2.80
2018-05-01T12:30:03.575Z,3.10
2018-05-01T12:32:31.374Z,3.47
2018-05-01T12:34:59.106Z,3.50
2018-05-01T12:37:26.828Z,4.00
2018-05-01T12:39:54.628Z,3.85
2018-05-01T12:42:22.476Z,6.10
2018-05-01T12:44:50.203Z,4.10
2018-05-01T12:47:17.979Z,4.50
2018-05-01T12:49:46.475Z,4.80
2018-05-01T12:52:14.966Z,4.68
2018-05-01T12:54:42.769Z,5.93
2018-05-01T12:57:10.537Z,6.82
2018-05-01T12:59:38.271Z,6.37
2018-05-01T13:02:06.069Z,5.85
2018-05-01T13:04:33.807Z,6.35
2018-05-01T13:07:01.538Z,5.32
2018-05-01T13:09:29.336Z,5.60
2018-05-01T13:11:57.073Z,5.35
2018-05-01T13:14:24.802Z,5.87
2018-05-01T13:16:53.384Z,5.30
2018-05-01T13:19:21.906Z,5.47
2018-05-01T13:21:49.656Z,5.12
2018-05-01T13:24:17.450Z,4.60
2018-05-01T13:26:45.203Z,6.57
2018-05-01T13:29:12.968Z,3.72
2018-05-01T13:31:40.829Z,4.07
2018-05-01T13:34:08.573Z,7.05
2018-05-01T13:36:36.316Z,5.68
2018-05-01T13:39:04.155Z,4.70
2018-05-01T13:41:32.666Z,4.68
2018-05-01T13:44:00.422Z,3.90
2018-05-01T13:46:28.303Z,4.90
2018-05-01T13:48:56.122Z,4.62
2018-05-01T13:51:23.851Z,5.50
2018-05-01T13:53:51.643Z,5.05
2018-05-01T13:56:20.154Z,5.20
2018-05-01T13:58:47.898Z,5.78
2018-05-01T14:01:15.705Z,3.20
2018-05-01T14:03:43.447Z,4.57
2018-05-01T14:06:11.190Z,4.50
2018-05-01T14:08:38.988Z,4.85
2018-05-01T14:11:06.787Z,5.30
2018-05-01T14:13:34.511Z,6.70
2018-05-01T14:16:02.352Z,4.90
2018-05-01T14:18:30.096Z,4.65
2018-05-01T14:20:58.591Z,5.37
2018-05-01T14:23:26.374Z,4.22
2018-05-01T14:25:54.113Z,4.57
2018-05-01T14:28:21.843Z,5.05
2018-05-01T14:30:49.652Z,5.32
2018-05-01T14:33:17.377Z,6.80
2018-05-01T14:35:45.904Z,3.85
2018-05-01T14:38:13.691Z,3.67
2018-05-01T14:40:41.436Z,3.67
2018-05-01T14:43:09.224Z,4.55
2018-05-01T14:45:37.770Z,6.43
2018-05-01T14:48:05.532Z,4.03
2018-05-01T14:50:33.274Z,4.75
2018-05-01T14:53:01.066Z,4.32
2018-05-01T14:55:28.876Z,3.75
2018-05-01T14:57:57.394Z,4.03
2018-05-01T15:00:25.125Z,6.55
2018-05-01T15:03:04.883Z,5.82
2018-05-01T15:05:32.610Z,3.83
2018-05-01T15:08:01.159Z,5.47
2018-05-01T15:10:28.925Z,4.90
2018-05-01T15:12:56.694Z,8.93
2018-05-01T15:15:24.442Z,3.35
2018-05-01T15:17:52.228Z,3.55
2018-05-01T15:20:20.741Z,3.47
2018-05-01T15:22:48.490Z,4.80
2018-05-01T15:25:17.040Z,5.15
2018-05-01T15:27:45.578Z,7.55
2018-05-01T15:30:13.423Z,4.93
2018-05-01T15:32:41.128Z,5.40
2018-05-01T15:35:08.877Z,6.43
2018-05-01T15:37:36.688Z,4.65
2018-05-01T15:40:05.212Z,4.57
2018-05-01T15:42:32.973Z,6.05
2018-05-01T15:45:01.508Z,6.18
2018-05-01T15:47:30.066Z,5.05
2018-05-01T15:49:57.812Z,5.03
2018-05-01T15:52:25.555Z,5.40
2018-05-01T15:54:53.356Z,10.85
2018-05-01T15:57:21.100Z,6.18
2018-05-01T15:59:48.884Z,5.90
2018-05-01T16:02:16.645Z,5.60
2018-05-01T16:04:44.415Z,5.00
2018-05-01T16:07:12.164Z,5.35
2018-05-01T16:09:39.967Z,5.22
2018-05-01T16:12:07.692Z,4.93
2018-05-01T16:14:35.416Z,7.45
2018-05-01T16:17:03.192Z,10.13
2018-05-01T16:19:30.952Z,5.40
2018-05-01T16:21:58.726Z,5.57
2018-05-01T16:24:26.485Z,6.87
2018-05-01T16:26:54.261Z,5.47
2018-05-01T16:29:22.007Z,6.57
2018-05-01T16:31:49.796Z,7.03
2018-05-01T16:34:18.287Z,4.45
2018-05-01T16:36:46.800Z,6.82
2018-05-01T16:39:14.559Z,9.05
2018-05-01T16:41:42.296Z,9.68
2018-05-01T16:44:10.061Z,7.07
2018-05-01T16:46:37.856Z,6.30
2018-05-01T16:49:05.657Z,7.40
2018-05-01T16:51:33.424Z,9.95
2018-05-01T16:54:01.166Z,8.88
2018-05-01T16:56:29.247Z,7.90
2018-05-01T16:58:57.033Z,6.43
2018-05-01T17:01:25.580Z,7.60
2018-05-01T17:03:53.351Z,7.22
2018-05-01T17:06:21.121Z,5.93
2018-05-01T17:08:48.855Z,7.20
2018-05-01T17:11:16.664Z,10.13
2018-05-01T17:13:45.163Z,8.20
2018-05-01T17:16:12.920Z,7.65
2018-05-01T17:18:40.692Z,6.55
2018-05-01T17:21:08.440Z,12.07
2018-05-01T17:23:36.206Z,9.35
2018-05-01T17:26:03.964Z,8.65
2018-05-01T17:28:31.766Z,6.85
2018-05-01T17:30:59.511Z,9.68
2018-05-01T17:33:27.265Z,7.20
2018-05-01T17:35:55.044Z,13.60
2018-05-01T17:38:22.816Z,7.90
2018-05-01T17:40:50.592Z,8.40
2018-05-01T17:43:18.367Z,7.15
2018-05-01T17:45:46.903Z,8.27
2018-05-01T17:48:14.640Z,10.80
2018-05-01T17:50:42.440Z,9.27
2018-05-01T17:53:10.218Z,11.85
2018-05-01T17:55:37.968Z,7.65
2018-05-01T17:58:05.810Z,7.37
2018-05-01T18:00:33.581Z,8.02
2018-05-01T18:03:01.362Z,9.35
2018-05-01T18:05:29.118Z,7.60
2018-05-01T18:07:56.920Z,7.53
2018-05-01T18:10:25.430Z,8.25
2018-05-01T18:12:53.228Z,9.68
2018-05-01T18:15:20.993Z,10.10
2018-05-01T18:17:48.767Z,13.23
2018-05-01T18:20:17.310Z,10.40
2018-05-01T18:22:45.209Z,12.18
2018-05-01T18:25:13.009Z,9.57
2018-05-01T18:27:40.800Z,10.18
2018-05-01T18:30:08.582Z,10.60
2018-05-01T18:32:36.327Z,12.65
2018-05-01T18:35:04.109Z,10.95
2018-05-01T18:37:31.883Z,9.98
2018-05-01T18:39:59.625Z,10.43
2018-05-01T18:42:27.440Z,11.77
2018-05-01T18:44:55.196Z,9.80
2018-05-01T18:47:23.737Z,13.48
2018-05-01T18:49:52.227Z,9.35
2018-05-01T18:52:20.833Z,8.70
2018-05-01T18:54:49.344Z,10.75
2018-05-01T18:57:17.112Z,9.18
2018-05-01T18:59:45.674Z,8.73
2018-05-01T19:02:13.433Z,9.60
2018-05-01T19:04:41.345Z,11.05
2018-05-01T19:07:09.036Z,12.77
2018-05-01T19:09:37.687Z,11.68
2018-05-01T19:12:05.533Z,13.38
2018-05-01T19:14:33.708Z,15.40
2018-05-01T19:17:02.327Z,13.45
2018-05-01T19:19:30.128Z,14.50
2018-05-01T19:21:58.042Z,13.45
2018-05-01T19:24:25.857Z,16.17
2018-05-01T19:26:53.648Z,13.57
2018-05-01T19:29:22.185Z,12.80
2018-05-01T19:31:50.200Z,12.37
2018-05-01T19:34:18.033Z,12.60
2018-05-01T19:36:46.557Z,13.15
2018-05-01T19:39:14.329Z,13.10
2018-05-01T19:41:42.073Z,12.93
2018-05-01T19:44:09.924Z,12.50
2018-05-01T19:46:38.805Z,11.80
2018-05-01T19:49:06.813Z,14.50
2018-05-01T19:51:34.544Z,13.25
2018-05-01T19:54:02.340Z,11.52
2018-05-01T19:56:30.958Z,14.57
2018-05-01T19:58:58.862Z,15.68
2018-05-01T20:01:26.687Z,14.05
2018-05-01T20:03:54.449Z,12.82
2018-05-01T20:06:22.269Z,13.60
2018-05-01T20:08:50.846Z,12.05
2018-05-01T20:11:18.721Z,14.40
2018-05-01T20:13:46.541Z,12.93
2018-05-01T20:16:14.358Z,12.48
2018-05-01T20:18:42.163Z,12.07
2018-05-01T20:21:09.917Z,14.48
2018-05-01T20:23:37.712Z,14.35
2018-05-01T20:26:05.475Z,13.55
2018-05-01T20:28:33.547Z,13.95
2018-05-01T20:31:02.127Z,14.00
2018-05-01T20:33:29.975Z,14.38
2018-05-01T20:35:57.773Z,14.30
2018-05-01T20:38:25.591Z,14.95
2018-05-01T20:40:53.346Z,13.85
2018-05-01T20:43:22.711Z,16.42
2018-05-01T20:45:51.236Z,14.77
2018-05-01T20:48:19.021Z,12.55
2018-05-01T20:50:47.099Z,15.07
2018-05-01T20:53:14.861Z,14.15
2018-05-01T20:55:42.603Z,14.95
2018-05-01T20:58:10.380Z,15.77
2018-05-01T21:00:38.272Z,15.40
2018-05-01T21:03:06.821Z,16.17
2018-05-01T21:05:34.572Z,15.93
2018-05-01T21:08:02.334Z,15.80
2018-05-01T21:10:30.072Z,19.62
2018-05-01T21:12:57.869Z,18.20
2018-05-01T21:15:25.607Z,16.17
2018-05-01T21:17:53.350Z,15.20
2018-05-01T21:20:21.805Z,13.45
2018-05-01T21:22:49.540Z,11.70
2018-05-01T21:25:18.092Z,9.20
2018-05-01T21:27:45.886Z,8.23
2018-05-01T21:30:13.621Z,8.45
2018-05-01T21:32:41.360Z,7.68
2018-05-01T21:35:09.115Z,7.10
2018-05-01T21:37:36.847Z,6.72
2018-05-01T21:40:05.561Z,5.57
2018-05-01T21:42:33.279Z,5.55
2018-05-01T21:45:01.779Z,7.00
2018-05-01T21:47:30.303Z,5.90
2018-05-01T21:49:58.043Z,5.87
2018-05-01T21:52:25.823Z,4.78
2018-05-01T21:54:53.535Z,6.53
2018-05-01T21:57:22.019Z,6.28
2018-05-01T21:59:50.539Z,5.90
2018-05-01T22:02:18.267Z,5.50
2018-05-01T22:04:46.044Z,4.37
2018-05-01T22:07:13.760Z,7.00
2018-05-01T22:09:41.488Z,6.05
2018-05-01T22:12:09.246Z,6.03
2018-05-01T22:14:37.793Z,7.05
2018-05-01T22:17:05.571Z,3.92
2018-05-01T22:19:33.295Z,2.92
2018-05-01T22:22:01.787Z,2.83
2018-05-01T22:24:30.294Z,3.25
2018-05-01T22:26:58.012Z,3.40
2018-05-01T22:29:26.559Z,2.95
2018-05-01T22:31:54.273Z,3.58
2018-05-01T22:34:22.034Z,2.87
2018-05-01T22:36:49.818Z,2.28
2018-05-01T22:39:17.547Z,3.28
2018-05-01T22:41:45.338Z,1.73
2018-05-01T22:44:13.057Z,2.50
2018-05-01T22:46:40.786Z,2.90
2018-05-01T22:49:08.552Z,2.47
2018-05-01T22:51:36.292Z,1.67
2018-05-01T22:54:04.076Z,1.90
2018-05-01T22:56:31.820Z,2.05
2018-05-01T22:58:59.564Z,2.10
2018-05-01T23:01:27.324Z,2.67
2018-05-01T23:03:55.055Z,2.90
2018-05-01T23:06:23.618Z,1.25
2018-05-01T23:08:51.363Z,2.95
2018-05-01T23:11:19.107Z,1.45
2018-05-01T23:13:46.868Z,2.22
2018-05-01T23:16:14.628Z,1.62
2018-05-01T23:18:42.430Z,2.00
2018-05-01T23:21:10.189Z,3.55
2018-05-01T23:23:37.914Z,3.15
2018-05-01T23:26:05.679Z,2.35
2018-05-01T23:28:33.422Z,1.42
2018-05-01T23:31:01.201Z,3.10
2018-05-01T23:33:28.928Z,2.60
2018-05-01T23:35:56.654Z,2.17
2018-05-01T23:38:24.415Z,1.73
2018-05-01T23:40:52.151Z,1.40
2018-05-01T23:43:19.942Z,2.05
2018-05-01T23:45:47.678Z,3.60
2018-05-01T23:48:15.414Z,1.87
2018-05-01T23:50:43.236Z,2.28
2018-05-01T23:53:11.739Z,2.33
2018-05-01T23:55:39.479Z,3.30
2018-05-01T23:58:07.303Z,3.35
